Bishopville, MD (21813)

4:56 PM EDT on September 30, 2014 (GMT -0400)
The Cross Residence | Change Station
CLOSE
Current Station
Personal Weather Station
Location: Showell, MD
Elevation: 25 ft
Nearby Weather Stations

Elev 25 ft 38.39 °N, 75.23 °W | Updated 4 seconds ago

Partly Cloudy
Partly Cloudy
71.9 °F
Feels Like 72 °F
N
0.0
Wind Variable Wind from East
Gusts 0.0 mph

Today
High -- | Low -- °F
--% Chance of Precip.
Yesterday
High -- | Low -- °F
Precip. -- in
6:55 AM 6:45 PM
Waxing Crescent, 40% visible
Pressure 29.89 in
Visibility 10.0 miles
Clouds Scattered Clouds 1700 ft
Heat Index 72 °F
Dew Point 65 °F
Humidity 80%
Rainfall 0.07 in
Snow Depth Not available.
UV 2 out of 12
Pollen 3.30 out of 12
Air Quality Not available.
Flu Activity Not available.
SPECI KOXB 302011Z AUTO 06005KT 10SM SCT017 23/17 A2989 RMK AO2 T02280167 TSNO

More Conditions Fewer Conditions

Pressure 29.89 in
Visibility 10.0 miles
Clouds Scattered Clouds 1700 ft
Heat Index 72 °F
Dew Point 65 °F
Humidity 80%
Rainfall 0.07 in
Snow Depth Not available.
UV 2 out of 12
Pollen 3.30 out of 12
Air Quality Not available.
Flu Activity Not available.
SPECI KOXB 302011Z AUTO 06005KT 10SM SCT017 23/17 A2989 RMK AO2 T02280167 TSNO

More Conditions Fewer Conditions

10-Day Weather Forecast

Almanac

Astronomy

Sep. 30, 2014 Rise Set
Actual Time 6:55 AM EDT 6:45 PM EDT
Civil Twilight 6:29 AM EDT 7:11 PM EDT
Nautical Twilight 5:58 AM EDT 7:42 PM EDT
Astronomical Twilight 5:27 AM EDT 8:13 PM EDT
Moon 12:58 PM EDT 11:16 PM EDT
Length of Visible Light 12h 42m
Length of Day
11h 49m
Tomorrow will be 2m 28s shorter.
Waxing Crescent, 40% of the Moon is Illuminated
Today
Waxing Crescent
Oct 1
First Quarter
Oct 8
Full
Oct 15
Last Quarter
Oct 23
New

Today's Extremes

State Highs State Lows

Community

WunderPhotos

Upload Photos

1,757,743 photos uploaded!

Nearby

Snow Depth

Station Depth Elevation
No new snow has been reported.

Earthquake Activity

City Distance Mag. Time & Date
No recent earthquake activity has been reported nearby.
Minimum magnitude displayed is 2.5.

Coastal Water Temperatures

Place Temperature
Ocean City Inlet, MD 71.1 °F
Wachapreague, VA 75.0 °F
Lewes, DE 71.1 °F
Cape May, NJ 73.9 °F
Bishops Head, MD 77.0 °F

Nearby Weather Stations